Time;durP1;ratioP1;P1;durP2;ratioP2;P2;SDS_P1;SDS_P2;PMS_P1;PMS_P2;Temp;Humidity;BMP_temperature;BMP_pressure;BME280_temperature;BME280_humidity;BME280_pressure;Samples;Min_cycle;Max_cycle;Signal;HPM_P1;HPM_P2
2020/12/22 00:00:14;;;;;;;2.80;2.80;;;12.30;99.90;;;;;;4999541;28;20623;-74
2020/12/22 00:02:44;;;;;;;2.90;2.80;;;12.30;99.90;;;;;;5007741;28;20423;-74
2020/12/22 00:05:11;;;;;;;2.80;2.70;;;12.30;99.90;;;;;;5002536;28;20651;-73
2020/12/22 00:07:40;;;;;;;2.50;2.50;;;12.30;99.90;;;;;;5010358;28;20455;-73
2020/12/22 00:10:07;;;;;;;2.40;2.40;;;12.40;99.90;;;;;;5008624;28;20781;-73
2020/12/22 00:12:34;;;;;;;2.20;2.20;;;12.40;99.90;;;;;;5006275;28;20473;-74
2020/12/22 00:15:00;;;;;;;2.73;2.70;;;12.40;99.90;;;;;;5013517;28;20445;-74
2020/12/22 00:17:26;;;;;;;2.70;2.60;;;12.50;99.90;;;;;;5009312;28;20456;-74
2020/12/22 00:19:52;;;;;;;3.20;3.10;;;12.60;99.90;;;;;;5009504;28;20183;-74
2020/12/22 00:22:18;;;;;;;3.20;3.10;;;12.50;99.90;;;;;;5002103;28;20423;-74
2020/12/22 00:24:44;;;;;;;3.00;2.90;;;12.50;99.90;;;;;;5006550;28;20189;-74
2020/12/22 00:27:10;;;;;;;3.00;2.90;;;12.60;99.90;;;;;;5007930;28;20217;-74
2020/12/22 00:29:35;;;;;;;2.87;2.77;;;12.70;99.90;;;;;;5009096;28;20261;-74
2020/12/22 00:32:02;;;;;;;2.80;2.70;;;12.70;99.90;;;;;;5000018;28;20535;-74
2020/12/22 00:34:31;;;;;;;3.43;3.33;;;12.70;99.90;;;;;;5009784;28;20295;-75
2020/12/22 00:36:59;;;;;;;2.53;2.50;;;12.60;99.90;;;;;;4989418;28;606708;-74
2020/12/22 00:39:26;;;;;;;2.70;2.60;;;12.60;99.90;;;;;;5016113;28;20950;-74
2020/12/22 00:41:53;;;;;;;2.57;2.47;;;12.60;99.90;;;;;;5018803;28;20508;-73
2020/12/22 00:44:20;;;;;;;2.50;2.40;;;12.60;99.90;;;;;;5002162;28;20998;-73
2020/12/22 00:46:46;;;;;;;2.63;2.53;;;12.70;99.90;;;;;;4992505;28;20927;-73
2020/12/22 00:49:13;;;;;;;2.20;2.20;;;12.70;99.90;;;;;;5002621;28;20400;-73
2020/12/22 00:51:39;;;;;;;2.50;2.40;;;12.70;99.90;;;;;;4996684;28;20842;-74
2020/12/22 00:54:06;;;;;;;2.53;2.43;;;12.70;99.90;;;;;;5003539;28;20476;-74
2020/12/22 00:56:32;;;;;;;2.40;2.30;;;12.70;99.90;;;;;;5024122;28;20414;-73
2020/12/22 00:58:58;;;;;;;2.20;2.20;;;12.70;99.90;;;;;;5010517;28;20763;-73
2020/12/22 01:01:24;;;;;;;2.23;2.13;;;12.80;99.90;;;;;;4990389;28;20295;-74
2020/12/22 01:03:49;;;;;;;2.23;2.17;;;12.90;99.90;;;;;;5005960;28;20194;-74
2020/12/22 01:06:16;;;;;;;2.30;2.20;;;12.90;99.90;;;;;;5010668;28;20189;-74
2020/12/22 01:08:43;;;;;;;2.00;2.00;;;13.00;99.90;;;;;;4997607;28;20258;-74
2020/12/22 01:11:09;;;;;;;1.93;1.93;;;13.00;99.90;;;;;;5011411;28;20839;-74
2020/12/22 01:13:34;;;;;;;2.10;2.10;;;13.00;99.90;;;;;;5007348;28;20502;-73
2020/12/22 01:16:00;;;;;;;2.20;2.20;;;13.10;99.90;;;;;;5010102;28;20179;-74
2020/12/22 01:18:26;;;;;;;2.00;2.00;;;13.10;99.90;;;;;;5000106;28;20297;-74
2020/12/22 01:20:52;;;;;;;2.03;2.03;;;13.20;99.90;;;;;;5011747;28;20176;-74
2020/12/22 01:23:17;;;;;;;2.07;2.07;;;13.20;99.90;;;;;;5011365;28;20187;-74
2020/12/22 01:25:43;;;;;;;2.00;2.00;;;13.20;99.90;;;;;;5014774;28;20775;-74
2020/12/22 01:28:09;;;;;;;2.20;2.10;;;13.20;99.90;;;;;;5010269;28;20850;-74
2020/12/22 01:30:38;;;;;;;2.10;2.10;;;13.30;99.90;;;;;;5010282;28;20634;-74
2020/12/22 01:33:05;;;;;;;2.30;2.10;;;13.40;99.90;;;;;;5009409;28;20214;-74
2020/12/22 01:35:30;;;;;;;2.20;2.20;;;13.30;99.90;;;;;;5013081;28;20455;-73
2020/12/22 01:37:56;;;;;;;2.10;2.10;;;13.30;99.90;;;;;;5012426;28;20457;-74
2020/12/22 01:40:22;;;;;;;1.83;1.73;;;13.40;99.90;;;;;;5012902;28;20183;-74
2020/12/22 01:42:48;;;;;;;1.87;1.77;;;13.40;99.90;;;;;;5010301;28;20195;-74
2020/12/22 01:45:14;;;;;;;1.77;1.77;;;13.40;99.90;;;;;;5013257;28;20183;-74
2020/12/22 01:47:45;;;;;;;1.80;1.80;;;13.40;99.90;;;;;;5013661;28;20411;-74
2020/12/22 01:50:13;;;;;;;1.73;1.73;;;13.40;99.90;;;;;;5014321;28;20179;-74
2020/12/22 01:52:39;;;;;;;1.87;1.87;;;13.30;99.90;;;;;;5014524;28;20520;-74
2020/12/22 01:55:05;;;;;;;1.70;1.70;;;13.40;99.90;;;;;;5013182;28;20430;-74
2020/12/22 01:57:31;;;;;;;1.80;1.80;;;13.30;99.90;;;;;;5011921;28;20414;-73
2020/12/22 01:59:57;;;;;;;2.03;1.93;;;13.30;99.90;;;;;;5011992;28;20428;-73
2020/12/22 02:02:23;;;;;;;1.50;1.50;;;13.30;99.90;;;;;;5010879;28;20186;-74
2020/12/22 02:04:50;;;;;;;1.70;1.70;;;13.40;99.90;;;;;;5010820;28;20188;-74
2020/12/22 02:07:15;;;;;;;2.10;2.10;;;13.40;99.90;;;;;;5012373;28;20415;-74
2020/12/22 02:09:43;;;;;;;2.23;2.20;;;13.40;99.90;;;;;;5011791;28;20406;-73
2020/12/22 02:12:09;;;;;;;2.10;2.10;;;13.40;99.90;;;;;;5012077;28;20616;-74
2020/12/22 02:14:35;;;;;;;2.10;2.10;;;13.40;99.90;;;;;;5013687;28;20496;-73
2020/12/22 02:17:00;;;;;;;2.47;2.37;;;13.50;99.90;;;;;;5012435;28;20457;-74
2020/12/22 02:19:26;;;;;;;2.57;2.50;;;13.40;99.90;;;;;;5000209;28;20854;-74
2020/12/22 02:21:53;;;;;;;3.23;3.10;;;13.40;99.90;;;;;;5010174;28;20175;-73
2020/12/22 02:24:19;;;;;;;3.00;2.90;;;13.50;99.90;;;;;;5005033;28;20514;-73
2020/12/22 02:26:46;;;;;;;3.00;2.90;;;13.40;99.90;;;;;;5013688;28;20819;-74
2020/12/22 02:29:12;;;;;;;3.33;3.17;;;13.40;99.90;;;;;;5015702;28;20560;-74
2020/12/22 02:31:37;;;;;;;3.00;2.90;;;13.50;99.90;;;;;;5033744;28;20496;-74
2020/12/22 02:34:03;;;;;;;3.03;2.93;;;13.60;99.90;;;;;;5017137;28;20458;-74
2020/12/22 02:36:29;;;;;;;3.50;3.33;;;13.60;99.90;;;;;;5004498;28;20633;-74
2020/12/22 02:38:56;;;;;;;3.37;3.27;;;13.60;99.90;;;;;;5005967;28;20206;-74
2020/12/22 02:41:22;;;;;;;3.50;3.40;;;13.60;99.90;;;;;;5012831;28;20237;-73
2020/12/22 02:43:47;;;;;;;4.10;4.00;;;13.60;99.90;;;;;;5027897;28;20429;-73
2020/12/22 02:46:13;;;;;;;4.50;4.20;;;13.60;99.90;;;;;;4993334;28;20172;-73
2020/12/22 02:48:39;;;;;;;4.40;4.20;;;13.60;99.90;;;;;;5007501;28;20628;-73
2020/12/22 02:51:05;;;;;;;4.17;4.07;;;13.70;99.90;;;;;;5011451;28;20183;-74
2020/12/22 02:53:30;;;;;;;4.23;3.97;;;13.70;99.90;;;;;;5011131;28;20221;-73
2020/12/22 02:55:56;;;;;;;4.13;3.90;;;13.70;99.90;;;;;;5012350;28;20181;-73
2020/12/22 02:58:22;;;;;;;4.27;4.07;;;13.70;99.90;;;;;;5003014;28;20179;-73
2020/12/22 03:00:47;;;;;;;4.10;4.00;;;13.70;99.90;;;;;;4997873;28;20242;-73
2020/12/22 03:03:13;;;;;;;3.80;3.70;;;13.70;99.90;;;;;;4994509;28;20651;-73
2020/12/22 03:05:40;;;;;;;4.20;4.00;;;13.80;99.90;;;;;;5013286;28;20590;-73
2020/12/22 03:08:08;;;;;;;4.50;4.10;;;13.80;99.90;;;;;;5012081;28;20172;-74
2020/12/22 03:10:34;;;;;;;4.20;4.00;;;13.80;99.90;;;;;;5012111;28;20405;-74
2020/12/22 03:13:00;;;;;;;4.60;4.30;;;13.90;99.90;;;;;;5012931;28;20463;-74
2020/12/22 03:15:26;;;;;;;4.80;4.60;;;13.90;99.90;;;;;;5012357;28;20554;-74
2020/12/22 03:17:51;;;;;;;5.07;4.77;;;13.90;99.90;;;;;;4996237;28;20172;-73
2020/12/22 03:20:17;;;;;;;4.93;4.63;;;13.90;99.90;;;;;;5002541;28;20176;-73
2020/12/22 03:22:43;;;;;;;5.00;4.80;;;13.90;99.90;;;;;;5010133;28;20201;-73
2020/12/22 03:25:11;;;;;;;4.77;4.57;;;13.90;99.90;;;;;;5011903;28;20188;-74
2020/12/22 03:27:38;;;;;;;5.10;4.80;;;13.90;99.90;;;;;;5012626;28;20788;-73
2020/12/22 03:30:06;;;;;;;4.80;4.60;;;14.00;99.90;;;;;;4999524;28;20931;-73
2020/12/22 03:32:32;;;;;;;4.73;4.53;;;14.00;99.90;;;;;;4991058;28;20998;-74
2020/12/22 03:34:58;;;;;;;5.03;4.73;;;14.00;99.90;;;;;;5004470;28;20513;-74
2020/12/22 03:37:24;;;;;;;4.87;4.67;;;14.00;99.90;;;;;;5014975;28;20229;-74
2020/12/22 03:39:51;;;;;;;4.93;4.63;;;14.10;99.90;;;;;;5010754;28;20185;-74
2020/12/22 03:42:18;;;;;;;4.93;4.70;;;14.10;99.90;;;;;;4993677;28;20197;-74
2020/12/22 03:44:45;;;;;;;4.70;4.40;;;14.20;99.90;;;;;;4993247;28;20420;-74
2020/12/22 03:47:11;;;;;;;4.60;4.30;;;14.10;99.90;;;;;;4994535;28;20420;-73
2020/12/22 03:49:37;;;;;;;4.03;3.83;;;14.20;99.90;;;;;;5011917;28;20879;-74
2020/12/22 03:52:03;;;;;;;4.67;4.47;;;14.20;99.90;;;;;;4992999;28;20423;-74
2020/12/22 03:54:30;;;;;;;4.40;4.20;;;14.20;99.90;;;;;;4999548;28;20677;-74
2020/12/22 03:56:56;;;;;;;4.13;4.00;;;14.20;99.90;;;;;;5016601;28;20481;-74
2020/12/22 03:59:22;;;;;;;4.53;4.33;;;14.30;99.90;;;;;;5021211;28;20423;-74
2020/12/22 04:01:50;;;;;;;4.10;4.00;;;14.40;99.90;;;;;;5011847;28;20182;-74
2020/12/22 04:04:23;;;;;;;3.90;3.80;;;14.40;99.90;;;;;;5009698;28;20914;-74
2020/12/22 04:06:50;;;;;;;3.93;3.83;;;14.40;99.90;;;;;;5005689;28;20780;-74
2020/12/22 04:09:16;;;;;;;4.17;4.07;;;14.40;99.90;;;;;;4991897;28;20824;-74
2020/12/22 04:11:42;;;;;;;3.90;3.70;;;14.40;99.90;;;;;;5012033;28;20495;-74
2020/12/22 04:14:09;;;;;;;4.13;3.93;;;14.40;99.90;;;;;;4995183;28;20552;-74
2020/12/22 04:16:36;;;;;;;3.73;3.60;;;14.50;99.90;;;;;;5000645;28;20182;-74
2020/12/22 04:19:02;;;;;;;4.03;3.83;;;14.50;99.90;;;;;;4995633;28;20929;-74
2020/12/22 04:21:29;;;;;;;3.93;3.83;;;14.50;99.90;;;;;;5007592;28;20430;-74
2020/12/22 04:23:54;;;;;;;3.97;3.67;;;14.50;99.90;;;;;;5001999;28;20523;-73
2020/12/22 04:26:20;;;;;;;3.60;3.50;;;14.50;99.90;;;;;;4992824;28;20465;-74
2020/12/22 04:28:47;;;;;;;3.97;3.87;;;14.60;99.90;;;;;;5000870;28;20197;-74
2020/12/22 04:31:12;;;;;;;3.97;3.77;;;14.60;99.90;;;;;;5011342;28;20503;-74
2020/12/22 04:33:38;;;;;;;4.17;4.00;;;14.60;99.90;;;;;;4998139;28;20600;-74
2020/12/22 04:36:04;;;;;;;4.13;3.90;;;14.60;99.90;;;;;;5000456;28;20674;-74
2020/12/22 04:38:31;;;;;;;4.27;4.07;;;14.60;99.90;;;;;;4991788;28;20198;-74
2020/12/22 04:41:01;;;;;;;4.43;4.23;;;14.60;99.90;;;;;;4998420;28;20456;-74
2020/12/22 04:43:27;;;;;;;4.40;4.20;;;14.60;99.90;;;;;;5011351;28;20430;-74
2020/12/22 04:46:00;;;;;;;3.87;3.77;;;14.60;99.90;;;;;;4997444;28;20922;-73
2020/12/22 04:48:29;;;;;;;3.83;3.73;;;14.70;99.90;;;;;;5000002;28;20413;-74
2020/12/22 04:50:55;;;;;;;4.70;4.50;;;14.60;99.90;;;;;;5030801;28;20897;-74
2020/12/22 04:53:21;;;;;;;4.30;4.10;;;14.60;99.90;;;;;;5011051;28;20501;-73
2020/12/22 04:55:46;;;;;;;4.50;4.30;;;14.60;99.90;;;;;;5002699;28;20650;-74
2020/12/22 04:58:12;;;;;;;4.37;4.27;;;14.60;99.90;;;;;;4992382;28;20409;-74
2020/12/22 05:00:38;;;;;;;3.97;3.77;;;14.70;99.90;;;;;;5013869;28;20639;-74
2020/12/22 05:03:05;;;;;;;3.80;3.70;;;14.70;99.90;;;;;;5015011;28;20272;-74
2020/12/22 05:05:31;;;;;;;4.00;3.90;;;14.70;99.90;;;;;;5016555;28;20190;-74
2020/12/22 05:07:57;;;;;;;3.77;3.67;;;14.70;99.90;;;;;;5015536;28;20418;-74
2020/12/22 05:10:24;;;;;;;4.40;4.00;;;14.80;99.90;;;;;;5013450;28;20248;-74
2020/12/22 05:12:50;;;;;;;3.83;3.73;;;14.80;99.90;;;;;;4994513;28;20466;-74
2020/12/22 05:15:16;;;;;;;3.80;3.60;;;14.80;99.90;;;;;;4995125;28;20416;-74
2020/12/22 05:17:46;;;;;;;4.10;3.90;;;14.80;99.90;;;;;;4995467;28;20175;-74
2020/12/22 05:20:15;;;;;;;3.53;3.30;;;14.80;99.90;;;;;;4996081;28;20631;-74
2020/12/22 05:22:45;;;;;;;3.30;3.20;;;14.90;99.90;;;;;;4999945;28;20416;-74
2020/12/22 05:25:16;;;;;;;3.33;3.00;;;14.80;99.90;;;;;;5015104;28;20431;-74
2020/12/22 05:27:44;;;;;;;3.00;2.90;;;14.90;99.90;;;;;;5015305;28;20397;-74
2020/12/22 05:30:09;;;;;;;3.20;3.10;;;14.90;99.90;;;;;;4998934;28;21000;-74
2020/12/22 05:32:35;;;;;;;3.73;3.63;;;14.90;99.90;;;;;;4995537;28;20417;-74
2020/12/22 05:35:01;;;;;;;3.33;3.23;;;14.90;99.90;;;;;;4998928;28;20211;-74
2020/12/22 05:37:27;;;;;;;3.63;3.53;;;14.90;99.90;;;;;;5002358;28;20581;-74
2020/12/22 05:39:53;;;;;;;3.43;3.33;;;14.90;99.90;;;;;;4995512;28;20423;-74
2020/12/22 05:42:20;;;;;;;3.80;3.60;;;14.90;99.90;;;;;;5013719;28;20435;-74
2020/12/22 05:44:48;;;;;;;3.20;3.07;;;15.00;99.90;;;;;;5024418;28;20453;-74
2020/12/22 05:47:19;;;;;;;3.63;3.43;;;15.00;99.90;;;;;;5014344;28;20507;-74
2020/12/22 05:49:53;;;;;;;4.03;3.73;;;15.00;99.90;;;;;;5014233;28;20783;-74
2020/12/22 05:52:29;;;;;;;3.33;3.23;;;15.00;99.90;;;;;;5013668;28;20415;-74
2020/12/22 05:54:56;;;;;;;3.63;3.40;;;15.00;99.90;;;;;;5002352;28;20436;-74
2020/12/22 05:57:27;;;;;;;3.43;3.33;;;15.00;99.90;;;;;;5018815;28;20985;-74
2020/12/22 05:59:54;;;;;;;2.90;2.80;;;15.00;99.90;;;;;;5018332;28;20779;-74
2020/12/22 06:02:27;;;;;;;3.10;3.00;;;15.00;99.90;;;;;;5018976;28;20414;-75
2020/12/22 06:04:58;;;;;;;3.20;3.10;;;15.10;99.90;;;;;;5026627;28;20831;-74
2020/12/22 06:07:26;;;;;;;3.13;3.03;;;15.10;99.90;;;;;;4994216;28;20442;-74
2020/12/22 06:09:52;;;;;;;3.43;3.17;;;15.10;99.90;;;;;;5006856;28;20433;-74
2020/12/22 06:12:20;;;;;;;4.53;4.13;;;15.00;99.90;;;;;;5009597;28;20425;-74
2020/12/22 06:14:53;;;;;;;3.50;3.30;;;15.10;99.90;;;;;;5012259;28;20464;-74
2020/12/22 06:17:22;;;;;;;3.60;3.50;;;15.10;99.90;;;;;;5023656;28;20405;-74
2020/12/22 06:19:49;;;;;;;3.80;3.60;;;15.10;99.90;;;;;;5019530;28;20497;-75
2020/12/22 06:22:16;;;;;;;3.70;3.60;;;15.10;99.90;;;;;;5014244;28;20442;-75
2020/12/22 06:24:51;;;;;;;4.00;3.90;;;15.00;99.90;;;;;;5003283;28;20425;-75
2020/12/22 06:27:17;;;;;;;3.50;3.40;;;15.10;99.90;;;;;;5020756;28;20416;-75
2020/12/22 06:29:47;;;;;;;3.70;3.60;;;15.10;99.90;;;;;;5029304;28;20421;-75
2020/12/22 06:32:24;;;;;;;3.47;3.37;;;15.10;99.90;;;;;;5017002;28;20535;-74
2020/12/22 06:34:51;;;;;;;3.53;3.33;;;15.10;99.90;;;;;;5013663;28;20476;-75
2020/12/22 06:37:20;;;;;;;3.27;3.17;;;15.00;99.90;;;;;;5013160;28;20541;-75
2020/12/22 06:39:50;;;;;;;4.07;3.87;;;15.00;99.90;;;;;;4995782;28;20423;-75
2020/12/22 06:42:39;;;;;;;3.10;3.00;;;14.90;99.90;;;;;;5008998;28;20425;-75
2020/12/22 06:45:30;;;;;;;3.57;3.30;;;15.00;99.90;;;;;;5012152;28;20429;-75
2020/12/22 06:47:56;;;;;;;3.23;3.13;;;14.90;99.90;;;;;;5027858;28;20598;-75
2020/12/22 06:50:39;;;;;;;3.50;3.40;;;15.00;99.90;;;;;;5010339;28;20456;-75
2020/12/22 06:53:05;;;;;;;3.50;3.30;;;15.00;99.90;;;;;;5013116;28;20958;-74
2020/12/22 06:55:50;;;;;;;3.00;2.90;;;15.00;99.90;;;;;;5030527;28;20457;-75
2020/12/22 06:58:41;;;;;;;3.30;3.20;;;15.00;99.90;;;;;;5017778;28;20861;-75
2020/12/22 07:01:25;;;;;;;3.00;2.90;;;15.00;99.90;;;;;;5012983;28;20979;-75
2020/12/22 07:04:23;;;;;;;4.03;3.83;;;14.90;99.90;;;;;;5011394;28;20437;-75
2020/12/22 07:07:02;;;;;;;3.83;3.63;;;14.90;99.90;;;;;;5009249;28;20905;-75
2020/12/22 07:09:33;;;;;;;3.63;3.53;;;14.80;99.90;;;;;;5010187;28;20471;-75
2020/12/22 07:12:08;;;;;;;3.30;3.20;;;14.80;99.90;;;;;;5012954;28;20828;-75
2020/12/22 07:14:38;;;;;;;3.97;3.80;;;14.80;99.90;;;;;;5011715;28;20468;-75
2020/12/22 07:17:04;;;;;;;3.70;3.60;;;14.80;99.90;;;;;;5015230;28;20409;-75
2020/12/22 07:19:32;;;;;;;3.23;3.13;;;14.80;99.90;;;;;;5012111;28;20970;-75
2020/12/22 07:21:59;;;;;;;3.60;3.40;;;14.80;99.90;;;;;;5010559;28;20949;-78
2020/12/22 07:24:27;;;;;;;3.43;3.33;;;14.80;99.90;;;;;;5011111;28;20426;-78
2020/12/22 07:26:53;;;;;;;3.50;3.30;;;14.80;99.90;;;;;;5000982;28;20425;-79
2020/12/22 07:29:19;;;;;;;3.80;3.60;;;14.80;99.90;;;;;;4994842;28;20423;-79
2020/12/22 07:31:46;;;;;;;3.67;3.57;;;14.80;99.90;;;;;;4993600;28;20183;-79
2020/12/22 07:34:11;;;;;;;3.07;2.97;;;14.80;99.90;;;;;;4993123;28;20458;-78
2020/12/22 07:36:38;;;;;;;3.57;3.30;;;14.80;99.90;;;;;;4994478;28;20472;-78
2020/12/22 07:39:14;;;;;;;2.97;2.97;;;14.70;99.90;;;;;;5000126;28;20428;-78
2020/12/22 07:41:40;;;;;;;3.20;3.10;;;14.70;99.90;;;;;;5007860;28;20437;-79
2020/12/22 07:44:11;;;;;;;3.70;3.57;;;14.70;99.90;;;;;;5006765;28;20532;-81
2020/12/22 07:46:38;;;;;;;2.73;2.63;;;14.60;99.90;;;;;;5008564;28;20422;-77
2020/12/22 07:49:05;;;;;;;3.70;3.50;;;14.70;99.90;;;;;;5009631;28;20434;-78
2020/12/22 07:51:32;;;;;;;2.87;2.77;;;14.80;99.90;;;;;;5006521;28;20506;-76
2020/12/22 07:54:05;;;;;;;3.20;3.10;;;15.00;99.90;;;;;;5017503;28;20562;-78
2020/12/22 07:56:45;;;;;;;3.20;3.10;;;15.20;99.90;;;;;;5001135;28;20429;-80
2020/12/22 07:59:15;;;;;;;2.70;2.70;;;15.30;99.90;;;;;;5012377;28;20409;-87
2020/12/22 08:01:50;;;;;;;3.03;2.83;;;15.20;99.90;;;;;;5011983;28;20707;-87
2020/12/22 08:04:20;;;;;;;2.50;2.40;;;15.20;99.90;;;;;;5002981;28;20952;-87
2020/12/22 08:06:59;;;;;;;2.87;2.70;;;15.10;99.90;;;;;;5013051;28;20422;-85
2020/12/22 08:09:38;;;;;;;3.00;2.80;;;15.10;99.90;;;;;;5011544;28;20408;-80
2020/12/22 08:12:05;;;;;;;2.73;2.63;;;15.00;99.90;;;;;;5011906;28;20441;-86
2020/12/22 08:14:33;;;;;;;3.00;2.80;;;15.00;99.90;;;;;;5009321;28;20461;-86
2020/12/22 08:17:05;;;;;;;3.10;3.00;;;14.90;99.90;;;;;;4999117;28;20438;-87
2020/12/22 08:19:35;;;;;;;3.30;3.00;;;14.90;99.90;;;;;;5001954;28;20529;-88
2020/12/22 08:22:01;;;;;;;2.60;2.50;;;14.90;99.90;;;;;;5006783;28;20425;-89
2020/12/22 08:24:29;;;;;;;3.40;3.20;;;14.90;99.90;;;;;;5011208;28;20512;-86
2020/12/22 08:26:55;;;;;;;3.20;3.10;;;14.90;99.90;;;;;;5012049;28;20833;-85
2020/12/22 08:29:21;;;;;;;3.07;2.97;;;14.90;99.90;;;;;;5009980;28;20494;-88
2020/12/22 08:31:50;;;;;;;4.13;3.90;;;14.90;99.90;;;;;;5011541;28;20413;-90
2020/12/22 08:34:17;;;;;;;2.67;2.57;;;14.90;99.90;;;;;;5015295;28;20547;-90
2020/12/22 08:36:44;;;;;;;2.90;2.70;;;14.90;99.90;;;;;;5013292;28;21249;-77
2020/12/22 08:39:22;;;;;;;3.07;2.87;;;14.90;99.90;;;;;;5015690;28;20771;-77
2020/12/22 08:41:53;;;;;;;3.73;3.53;;;14.90;99.90;;;;;;5013500;28;20515;-77
2020/12/22 08:44:19;;;;;;;3.50;3.40;;;14.90;99.90;;;;;;5015463;28;20449;-89
2020/12/22 08:46:46;;;;;;;2.90;2.80;;;14.90;99.90;;;;;;5006762;28;20446;-83
2020/12/22 08:49:16;;;;;;;2.73;2.63;;;14.90;99.90;;;;;;5014966;28;20425;-80
2020/12/22 08:51:43;;;;;;;3.50;3.30;;;14.90;99.90;;;;;;5014789;28;20531;-79
2020/12/22 08:54:09;;;;;;;2.70;2.60;;;14.90;99.90;;;;;;5015658;28;20851;-81
2020/12/22 08:56:36;;;;;;;3.43;2.90;;;14.90;99.90;;;;;;5011572;28;20413;-81
2020/12/22 08:59:04;;;;;;;2.93;2.70;;;14.90;99.90;;;;;;5014191;28;20487;-78
2020/12/22 09:01:42;;;;;;;2.70;2.60;;;14.90;99.90;;;;;;5007207;28;20437;-81
2020/12/22 09:04:10;;;;;;;2.80;2.70;;;14.90;99.90;;;;;;4994905;28;20409;-83
2020/12/22 09:06:41;;;;;;;2.93;2.73;;;14.90;99.90;;;;;;5010384;28;20509;-78
2020/12/22 09:09:16;;;;;;;3.30;3.10;;;14.90;99.90;;;;;;5014993;28;20444;-78
2020/12/22 09:11:43;;;;;;;2.50;2.40;;;15.00;99.90;;;;;;5014280;28;20917;-78
2020/12/22 09:14:19;;;;;;;3.20;3.00;;;15.10;99.90;;;;;;5014813;28;20465;-77
2020/12/22 09:16:56;;;;;;;2.93;2.83;;;15.20;99.90;;;;;;5014018;28;20509;-77
2020/12/22 09:19:28;;;;;;;3.07;2.77;;;15.40;99.90;;;;;;5015486;28;20427;-78
2020/12/22 09:22:01;;;;;;;3.00;2.90;;;15.50;99.90;;;;;;5014756;28;20436;-77
2020/12/22 09:24:28;;;;;;;3.13;3.03;;;15.60;99.90;;;;;;5013178;28;20434;-75
2020/12/22 09:27:02;;;;;;;3.00;2.80;;;15.60;99.90;;;;;;5014127;28;20423;-75
2020/12/22 09:29:28;;;;;;;3.30;3.10;;;15.70;99.90;;;;;;5014668;28;20419;-76
2020/12/22 09:31:55;;;;;;;3.07;2.93;;;15.60;99.90;;;;;;5013027;28;20420;-75
2020/12/22 09:34:22;;;;;;;2.97;2.87;;;15.60;99.90;;;;;;5014568;28;20802;-78
2020/12/22 09:36:56;;;;;;;3.00;2.90;;;15.60;99.90;;;;;;5012525;28;21091;-78
2020/12/22 09:39:22;;;;;;;3.03;2.93;;;15.70;99.90;;;;;;5014712;28;20406;-81
2020/12/22 09:41:48;;;;;;;2.90;2.80;;;15.60;99.90;;;;;;5014223;28;20507;-85
2020/12/22 09:44:15;;;;;;;3.60;3.00;;;15.60;99.90;;;;;;5013525;28;20435;-83
2020/12/22 09:46:41;;;;;;;2.83;2.40;;;15.60;99.90;;;;;;5013939;28;20415;-84
2020/12/22 09:49:07;;;;;;;3.00;2.80;;;15.60;99.90;;;;;;5013064;28;20786;-83
2020/12/22 09:51:32;;;;;;;2.73;2.63;;;15.50;99.90;;;;;;5013485;28;20180;-84
2020/12/22 09:53:58;;;;;;;2.50;2.50;;;15.50;99.90;;;;;;5014351;28;20466;-81
2020/12/22 09:56:24;;;;;;;3.30;3.20;;;15.40;99.90;;;;;;5012426;28;20190;-78
2020/12/22 09:58:50;;;;;;;3.03;2.87;;;15.40;99.90;;;;;;5009372;28;20449;-78
2020/12/22 10:01:24;;;;;;;2.97;2.87;;;15.30;99.90;;;;;;5014184;28;20507;-78
2020/12/22 10:03:50;;;;;;;2.37;2.37;;;15.40;99.90;;;;;;5012288;28;20187;-77
2020/12/22 10:06:17;;;;;;;2.60;2.60;;;15.40;99.90;;;;;;5014191;28;20413;-77
2020/12/22 10:08:43;;;;;;;2.83;2.67;;;15.30;99.90;;;;;;5013495;28;20528;-77
2020/12/22 10:11:09;;;;;;;2.60;2.50;;;15.30;99.90;;;;;;5012715;28;20512;-76
2020/12/22 10:13:35;;;;;;;2.90;2.80;;;15.20;99.90;;;;;;5013215;28;20937;-76
2020/12/22 10:16:05;;;;;;;3.10;2.90;;;15.20;99.90;;;;;;4996634;28;20434;-76
2020/12/22 10:18:30;;;;;;;3.17;2.97;;;15.10;99.90;;;;;;5013346;28;20425;-76
2020/12/22 10:20:56;;;;;;;3.37;3.27;;;15.10;99.90;;;;;;5008278;28;20432;-77
2020/12/22 10:23:22;;;;;;;3.63;3.40;;;15.10;99.90;;;;;;5014286;28;20197;-77
2020/12/22 10:25:47;;;;;;;3.30;3.20;;;15.10;99.90;;;;;;5012847;28;20233;-77
2020/12/22 10:28:13;;;;;;;2.80;2.70;;;15.10;99.90;;;;;;5013520;28;20184;-76
2020/12/22 10:30:39;;;;;;;2.77;2.67;;;15.10;99.90;;;;;;5012272;28;20245;-76
2020/12/22 10:33:05;;;;;;;3.20;3.10;;;15.10;99.90;;;;;;5013525;28;20627;-77
2020/12/22 10:35:30;;;;;;;3.27;3.17;;;15.10;99.90;;;;;;5013393;28;20182;-77
2020/12/22 10:37:56;;;;;;;3.10;3.00;;;15.10;99.90;;;;;;5013526;28;20233;-78
2020/12/22 10:40:22;;;;;;;3.30;3.20;;;15.00;99.90;;;;;;5005559;28;20190;-78
2020/12/22 10:42:47;;;;;;;3.30;3.20;;;15.00;99.90;;;;;;5014176;28;20187;-79
2020/12/22 10:45:13;;;;;;;3.03;3.00;;;15.00;99.90;;;;;;5006798;28;20184;-79
2020/12/22 10:47:39;;;;;;;3.07;2.97;;;15.00;99.90;;;;;;5009537;28;20189;-82
2020/12/22 10:50:05;;;;;;;3.07;2.97;;;14.90;99.90;;;;;;5006945;28;20435;-81
2020/12/22 10:52:31;;;;;;;3.60;3.00;;;14.90;99.90;;;;;;5013224;28;20185;-81
2020/12/22 10:54:59;;;;;;;3.33;3.23;;;14.90;99.90;;;;;;5012197;28;20586;-81
2020/12/22 10:57:24;;;;;;;3.37;3.27;;;14.90;99.90;;;;;;5009389;28;20513;-81
2020/12/22 10:59:50;;;;;;;3.43;3.23;;;14.90;99.90;;;;;;5001992;28;21020;-90
2020/12/22 11:02:16;;;;;;;3.50;3.30;;;14.80;99.90;;;;;;5000931;28;20253;-86
2020/12/22 11:04:45;;;;;;;3.83;3.63;;;14.90;99.90;;;;;;5011699;28;20210;-90
2020/12/22 11:07:48;;;;;;;3.57;3.40;;;14.80;99.90;;;;;;5010952;28;20182;-87
2020/12/22 11:10:03;;;;;;;3.40;3.30;;;14.80;99.90;;;;;;5008225;28;20917;-91
2020/12/22 11:12:29;;;;;;;3.03;2.93;;;14.80;99.90;;;;;;5013011;28;20429;-91
2020/12/22 11:14:55;;;;;;;3.40;3.30;;;14.90;99.90;;;;;;5011910;28;21023;-92
2020/12/22 11:17:21;;;;;;;3.50;3.40;;;14.90;99.90;;;;;;5013451;28;20236;-91
2020/12/22 11:19:47;;;;;;;3.20;3.10;;;14.90;99.90;;;;;;5012429;28;20425;-91
2020/12/22 11:22:12;;;;;;;3.17;3.07;;;15.00;99.90;;;;;;5012147;28;20257;-92
2020/12/22 11:24:38;;;;;;;3.07;2.97;;;15.00;99.90;;;;;;5011255;28;20319;-90
2020/12/22 11:27:04;;;;;;;2.97;2.87;;;15.00;99.90;;;;;;5013275;28;20184;-92
2020/12/22 11:29:30;;;;;;;2.93;2.83;;;14.90;99.90;;;;;;5013091;28;20186;-91
2020/12/22 11:31:55;;;;;;;3.30;3.20;;;15.10;99.90;;;;;;5012168;28;20320;-92
2020/12/22 11:34:21;;;;;;;3.00;2.90;;;15.30;99.90;;;;;;5013084;28;20702;-91
2020/12/22 11:36:49;;;;;;;2.90;2.80;;;15.40;99.90;;;;;;4998585;28;20322;-89
2020/12/22 11:39:15;;;;;;;2.60;2.50;;;15.50;99.90;;;;;;4993210;28;20172;-91
2020/12/22 11:41:40;;;;;;;2.83;2.73;;;15.60;99.90;;;;;;5003216;28;20433;-91
2020/12/22 11:44:06;;;;;;;2.77;2.67;;;15.50;99.90;;;;;;5012914;28;20407;-92
2020/12/22 11:46:32;;;;;;;3.60;3.50;;;15.60;99.90;;;;;;5012726;28;20189;-92
2020/12/22 11:48:58;;;;;;;3.27;3.17;;;15.70;99.90;;;;;;5012157;28;20442;-92
2020/12/22 11:51:23;;;;;;;3.07;2.77;;;15.80;99.90;;;;;;5012755;28;20175;-91
2020/12/22 11:53:49;;;;;;;2.93;2.83;;;15.80;99.90;;;;;;5010529;28;20211;-91
2020/12/22 11:56:15;;;;;;;3.20;3.20;;;15.80;99.90;;;;;;5012980;28;20206;-91
2020/12/22 11:58:40;;;;;;;3.10;2.90;;;15.80;99.90;;;;;;5011213;28;20217;-90
2020/12/22 12:01:06;;;;;;;2.40;2.30;;;15.70;99.90;;;;;;5013088;28;20175;-92
2020/12/22 12:03:32;;;;;;;2.77;2.57;;;15.60;99.90;;;;;;5012628;28;20190;-92
2020/12/22 12:05:58;;;;;;;2.87;2.67;;;15.60;99.90;;;;;;5011941;28;20455;-91
2020/12/22 12:08:24;;;;;;;2.90;2.70;;;15.60;99.90;;;;;;5012436;28;20167;-92
2020/12/22 12:10:49;;;;;;;2.97;2.87;;;15.60;99.90;;;;;;5011688;28;20184;-90
2020/12/22 12:13:15;;;;;;;4.03;3.77;;;15.70;99.90;;;;;;5012436;28;20374;-91
2020/12/22 12:15:41;;;;;;;6.83;6.00;;;15.60;99.90;;;;;;5011947;28;20524;-90
2020/12/22 12:18:06;;;;;;;4.87;4.67;;;15.60;99.90;;;;;;5011830;28;20176;-92
2020/12/22 12:20:32;;;;;;;3.73;3.60;;;15.40;99.90;;;;;;5012805;28;20188;-91
2020/12/22 12:22:58;;;;;;;4.60;4.20;;;15.20;99.90;;;;;;5011319;28;20619;-92
2020/12/22 12:25:24;;;;;;;3.73;3.40;;;15.20;99.90;;;;;;5012832;28;20234;-92
2020/12/22 12:27:50;;;;;;;3.93;3.73;;;15.10;99.90;;;;;;5011832;28;20402;-92
2020/12/22 12:30:16;;;;;;;4.67;4.43;;;15.00;99.90;;;;;;5011150;28;20188;-92
2020/12/22 12:32:42;;;;;;;3.80;3.70;;;14.90;99.90;;;;;;5011670;28;20185;-90
2020/12/22 12:35:08;;;;;;;4.60;4.20;;;14.80;99.90;;;;;;5012507;28;20401;-92
2020/12/22 12:37:33;;;;;;;3.50;3.30;;;14.80;99.90;;;;;;5012066;28;20237;-91
2020/12/22 12:39:59;;;;;;;6.57;3.77;;;14.80;99.90;;;;;;5011807;28;20169;-92
2020/12/22 12:42:28;;;;;;;3.20;3.00;;;14.70;99.90;;;;;;5010994;28;20193;-91
2020/12/22 12:44:54;;;;;;;3.17;2.90;;;14.70;99.90;;;;;;5010251;28;20232;-91
2020/12/22 12:47:21;;;;;;;3.40;3.20;;;14.70;99.90;;;;;;5011849;28;20424;-74
2020/12/22 12:49:46;;;;;;;3.50;3.30;;;14.60;99.90;;;;;;5010325;28;20510;-74